West Fargo, North Dakota
Current Conditions -  °F | °C
As of 7:53 AM on Wednesday 26 Nov 2014 (Local Time) from KFAR Reporting Station
Overcast Overcast  
Wind Chill: -19°   Ceiling: 600
Heat Index:   Visibility: 8mi
Dew Point: -3°   Wind: 22mph
Humidity: 76%   Direction: 350°N
Pressure: 30.33"   Gusts: NA
Location:  46.87°N, 96.88°W
Report Text: KFAR 261353Z 35019KT 8SM BKN006 OVC110 M16/M19 A3033 RMK AO2 SLP291 T11611194
Loading
Personal Weather Stations






























Interactive Weather Map New forecast layout! Learn more

10-Day Weather Forecast

Advertisements
Track Severe Weather on mobile